sensor_id;sensor_type;location;lat;lon;timestamp;temperature;humidity
64599;SHT31;51008;51.504;11.548;2024-03-23T00:53:39;7.94;94.96
64599;SHT31;51008;51.504;11.548;2024-03-23T00:58:40;7.87;95.26
64599;SHT31;51008;51.504;11.548;2024-03-23T01:03:41;7.86;95.17
64599;SHT31;51008;51.504;11.548;2024-03-23T01:08:42;7.85;95.43
64599;SHT31;51008;51.504;11.548;2024-03-23T01:13:43;7.89;95.49
64599;SHT31;51008;51.504;11.548;2024-03-23T01:18:44;7.85;95.59
64599;SHT31;51008;51.504;11.548;2024-03-23T01:23:46;7.79;95.64
64599;SHT31;51008;51.504;11.548;2024-03-23T01:28:47;7.81;95.57
64599;SHT31;51008;51.504;11.548;2024-03-23T01:33:48;7.79;95.67
64599;SHT31;51008;51.504;11.548;2024-03-23T01:38:49;7.82;95.41
64599;SHT31;51008;51.504;11.548;2024-03-23T01:43:50;7.81;95.47
64599;SHT31;51008;51.504;11.548;2024-03-23T01:48:51;7.74;95.70
64599;SHT31;51008;51.504;11.548;2024-03-23T01:53:53;7.69;95.99
64599;SHT31;51008;51.504;11.548;2024-03-23T01:58:55;7.72;96.05
64599;SHT31;51008;51.504;11.548;2024-03-23T02:03:56;7.68;95.89
64599;SHT31;51008;51.504;11.548;2024-03-23T02:08:57;7.69;95.87
64599;SHT31;51008;51.504;11.548;2024-03-23T02:13:58;7.68;95.85
64599;SHT31;51008;51.504;11.548;2024-03-23T02:18:59;7.68;96.05
64599;SHT31;51008;51.504;11.548;2024-03-23T02:24:00;7.65;95.85
64599;SHT31;51008;51.504;11.548;2024-03-23T02:29:01;7.67;95.96
64599;SHT31;51008;51.504;11.548;2024-03-23T02:34:02;7.68;96.02
64599;SHT31;51008;51.504;11.548;2024-03-23T02:39:03;7.71;95.84
64599;SHT31;51008;51.504;11.548;2024-03-23T02:44:05;7.64;95.91
64599;SHT31;51008;51.504;11.548;2024-03-23T02:49:07;7.61;96.02
64599;SHT31;51008;51.504;11.548;2024-03-23T02:54:08;7.64;96.12
64599;SHT31;51008;51.504;11.548;2024-03-23T02:59:09;7.62;95.96
64599;SHT31;51008;51.504;11.548;2024-03-23T03:04:10;7.55;96.11
64599;SHT31;51008;51.504;11.548;2024-03-23T03:09:11;7.57;95.92
64599;SHT31;51008;51.504;11.548;2024-03-23T03:14:12;7.54;96.08
64599;SHT31;51008;51.504;11.548;2024-03-23T03:19:13;7.50;96.09
64599;SHT31;51008;51.504;11.548;2024-03-23T03:24:15;7.48;96.09
64599;SHT31;51008;51.504;11.548;2024-03-23T03:29:16;7.47;96.22
64599;SHT31;51008;51.504;11.548;2024-03-23T03:34:17;7.46;96.25
64599;SHT31;51008;51.504;11.548;2024-03-23T03:39:18;7.48;96.35
64599;SHT31;51008;51.504;11.548;2024-03-23T03:44:19;7.50;96.37
64599;SHT31;51008;51.504;11.548;2024-03-23T03:49:20;7.47;96.39
64599;SHT31;51008;51.504;11.548;2024-03-23T03:54:21;7.46;96.49
64599;SHT31;51008;51.504;11.548;2024-03-23T03:59:22;7.44;96.48
64599;SHT31;51008;51.504;11.548;2024-03-23T04:04:24;7.43;96.43
64599;SHT31;51008;51.504;11.548;2024-03-23T04:09:24;7.40;96.45
64599;SHT31;51008;51.504;11.548;2024-03-23T04:14:26;7.35;96.27
64599;SHT31;51008;51.504;11.548;2024-03-23T04:19:27;7.35;96.33
64599;SHT31;51008;51.504;11.548;2024-03-23T04:24:28;7.34;96.51
64599;SHT31;51008;51.504;11.548;2024-03-23T04:29:30;7.26;96.72
64599;SHT31;51008;51.504;11.548;2024-03-23T04:34:31;7.26;96.80
64599;SHT31;51008;51.504;11.548;2024-03-23T04:39:32;7.23;96.95
64599;SHT31;51008;51.504;11.548;2024-03-23T04:44:33;7.19;97.05
64599;SHT31;51008;51.504;11.548;2024-03-23T04:49:34;7.19;97.37
64599;SHT31;51008;51.504;11.548;2024-03-23T04:54:35;7.19;97.40
64599;SHT31;51008;51.504;11.548;2024-03-23T04:59:36;7.13;97.51
64599;SHT31;51008;51.504;11.548;2024-03-23T05:04:38;7.06;97.62
64599;SHT31;51008;51.504;11.548;2024-03-23T05:09:39;6.97;97.52
64599;SHT31;51008;51.504;11.548;2024-03-23T05:14:40;6.89;97.74
64599;SHT31;51008;51.504;11.548;2024-03-23T05:19:41;6.78;97.94
64599;SHT31;51008;51.504;11.548;2024-03-23T05:24:45;6.61;98.31
64599;SHT31;51008;51.504;11.548;2024-03-23T05:29:46;6.41;98.27
64599;SHT31;51008;51.504;11.548;2024-03-23T05:34:47;6.29;98.17
64599;SHT31;51008;51.504;11.548;2024-03-23T05:39:48;6.13;97.76
64599;SHT31;51008;51.504;11.548;2024-03-23T05:44:49;5.94;98.03
64599;SHT31;51008;51.504;11.548;2024-03-23T05:49:50;5.88;98.19
64599;SHT31;51008;51.504;11.548;2024-03-23T05:54:51;5.79;98.65
64599;SHT31;51008;51.504;11.548;2024-03-23T05:59:52;5.75;98.80
64599;SHT31;51008;51.504;11.548;2024-03-23T06:04:53;5.75;98.90
64599;SHT31;51008;51.504;11.548;2024-03-23T06:09:54;5.72;98.92
64599;SHT31;51008;51.504;11.548;2024-03-23T06:14:55;5.67;98.98
64599;SHT31;51008;51.504;11.548;2024-03-23T06:19:56;5.57;99.24
64599;SHT31;51008;51.504;11.548;2024-03-23T06:24:57;5.48;99.16
64599;SHT31;51008;51.504;11.548;2024-03-23T06:29:59;5.43;99.33
64599;SHT31;51008;51.504;11.548;2024-03-23T06:35:00;5.35;99.40
64599;SHT31;51008;51.504;11.548;2024-03-23T06:40:01;5.33;99.38
64599;SHT31;51008;51.504;11.548;2024-03-23T06:45:03;5.18;98.22
64599;SHT31;51008;51.504;11.548;2024-03-23T06:50:04;4.80;97.26
64599;SHT31;51008;51.504;11.548;2024-03-23T06:55:06;4.52;97.27
64599;SHT31;51008;51.504;11.548;2024-03-23T07:00:07;4.32;97.39
64599;SHT31;51008;51.504;11.548;2024-03-23T07:05:08;4.09;97.26
64599;SHT31;51008;51.504;11.548;2024-03-23T07:10:09;3.93;97.60
64599;SHT31;51008;51.504;11.548;2024-03-23T07:15:10;3.76;97.68
64599;SHT31;51008;51.504;11.548;2024-03-23T07:20:11;3.63;98.12
64599;SHT31;51008;51.504;11.548;2024-03-23T07:25:13;3.42;98.00
64599;SHT31;51008;51.504;11.548;2024-03-23T07:30:14;3.32;97.95
64599;SHT31;51008;51.504;11.548;2024-03-23T07:35:15;3.28;98.39
64599;SHT31;51008;51.504;11.548;2024-03-23T07:40:16;3.28;98.60
64599;SHT31;51008;51.504;11.548;2024-03-23T07:45:17;3.32;98.58
64599;SHT31;51008;51.504;11.548;2024-03-23T07:50:18;3.32;98.74
64599;SHT31;51008;51.504;11.548;2024-03-23T07:55:19;3.36;98.89
64599;SHT31;51008;51.504;11.548;2024-03-23T08:00:20;3.38;98.93
64599;SHT31;51008;51.504;11.548;2024-03-23T08:05:21;3.43;99.14
64599;SHT31;51008;51.504;11.548;2024-03-23T08:10:22;3.53;99.29
64599;SHT31;51008;51.504;11.548;2024-03-23T08:15:23;3.62;99.11
64599;SHT31;51008;51.504;11.548;2024-03-23T08:20:24;3.74;99.38
64599;SHT31;51008;51.504;11.548;2024-03-23T08:25:25;3.78;99.25
64599;SHT31;51008;51.504;11.548;2024-03-23T08:30:26;3.80;98.98
64599;SHT31;51008;51.504;11.548;2024-03-23T08:35:27;3.70;98.40
64599;SHT31;51008;51.504;11.548;2024-03-23T08:40:28;3.67;98.73
64599;SHT31;51008;51.504;11.548;2024-03-23T08:45:29;3.66;98.89
64599;SHT31;51008;51.504;11.548;2024-03-23T08:50:30;3.60;98.69
64599;SHT31;51008;51.504;11.548;2024-03-23T08:55:31;3.63;98.91
64599;SHT31;51008;51.504;11.548;2024-03-23T09:00:32;3.71;98.90
64599;SHT31;51008;51.504;11.548;2024-03-23T09:05:39;3.74;98.88
64599;SHT31;51008;51.504;11.548;2024-03-23T09:10:41;3.67;98.55
64599;SHT31;51008;51.504;11.548;2024-03-23T09:15:47;3.73;98.63
64599;SHT31;51008;51.504;11.548;2024-03-23T09:20:48;3.80;98.87
64599;SHT31;51008;51.504;11.548;2024-03-23T09:25:50;3.85;98.85
64599;SHT31;51008;51.504;11.548;2024-03-23T09:30:51;3.88;98.92
64599;SHT31;51008;51.504;11.548;2024-03-23T09:35:52;3.83;98.19
64599;SHT31;51008;51.504;11.548;2024-03-23T09:40:53;3.95;98.97
64599;SHT31;51008;51.504;11.548;2024-03-23T09:45:54;4.09;98.86
64599;SHT31;51008;51.504;11.548;2024-03-23T09:50:55;4.12;98.22
64599;SHT31;51008;51.504;11.548;2024-03-23T09:55:56;4.22;97.98
64599;SHT31;51008;51.504;11.548;2024-03-23T10:00:58;4.39;97.86
64599;SHT31;51008;51.504;11.548;2024-03-23T10:06:00;4.57;97.38
64599;SHT31;51008;51.504;11.548;2024-03-23T10:11:28;4.61;96.82
64599;SHT31;51008;51.504;11.548;2024-03-23T10:16:29;4.66;97.01
64599;SHT31;51008;51.504;11.548;2024-03-23T10:21:30;4.78;97.06
64599;SHT31;51008;51.504;11.548;2024-03-23T10:26:43;4.91;97.05
64599;SHT31;51008;51.504;11.548;2024-03-23T10:31:46;4.83;96.97
64599;SHT31;51008;51.504;11.548;2024-03-23T10:36:47;4.75;96.97
64599;SHT31;51008;51.504;11.548;2024-03-23T10:41:50;4.81;96.68
64599;SHT31;51008;51.504;11.548;2024-03-23T10:46:51;4.96;96.62
64599;SHT31;51008;51.504;11.548;2024-03-23T10:52:00;5.18;96.09
64599;SHT31;51008;51.504;11.548;2024-03-23T11:02:03;6.40;95.18
64599;SHT31;51008;51.504;11.548;2024-03-23T11:12:28;7.96;92.53
64599;SHT31;51008;51.504;11.548;2024-03-23T11:17:29;8.14;90.12
64599;SHT31;51008;51.504;11.548;2024-03-23T11:22:43;8.58;90.01
64599;SHT31;51008;51.504;11.548;2024-03-23T11:27:45;9.34;90.19
64599;SHT31;51008;51.504;11.548;2024-03-23T11:32:48;9.04;86.65
64599;SHT31;51008;51.504;11.548;2024-03-23T11:38:04;8.97;84.83
64599;SHT31;51008;51.504;11.548;2024-03-23T11:43:10;8.37;82.76
64599;SHT31;51008;51.504;11.548;2024-03-23T11:48:15;9.10;87.04
64599;SHT31;51008;51.504;11.548;2024-03-23T11:53:17;9.34;83.57
64599;SHT31;51008;51.504;11.548;2024-03-23T11:58:20;9.82;83.94
64599;SHT31;51008;51.504;11.548;2024-03-23T12:03:21;9.83;78.69
64599;SHT31;51008;51.504;11.548;2024-03-23T12:08:42;10.38;82.03
64599;SHT31;51008;51.504;11.548;2024-03-23T12:13:44;10.42;77.15
64599;SHT31;51008;51.504;11.548;2024-03-23T12:18:49;10.44;77.29
64599;SHT31;51008;51.504;11.548;2024-03-23T12:23:51;10.73;76.46
64599;SHT31;51008;51.504;11.548;2024-03-23T12:28:52;10.56;78.01
64599;SHT31;51008;51.504;11.548;2024-03-23T12:33:53;10.50;77.83
64599;SHT31;51008;51.504;11.548;2024-03-23T12:38:54;10.63;75.64
64599;SHT31;51008;51.504;11.548;2024-03-23T12:43:55;10.63;72.79
64599;SHT31;51008;51.504;11.548;2024-03-23T12:48:56;10.92;76.73
64599;SHT31;51008;51.504;11.548;2024-03-23T12:53:57;11.25;74.44
64599;SHT31;51008;51.504;11.548;2024-03-23T12:58:58;11.14;70.91
64599;SHT31;51008;51.504;11.548;2024-03-23T13:04:00;10.79;70.53
64599;SHT31;51008;51.504;11.548;2024-03-23T13:09:02;10.59;68.62
64599;SHT31;51008;51.504;11.548;2024-03-23T13:14:03;10.14;70.30
64599;SHT31;51008;51.504;11.548;2024-03-23T13:19:04;10.21;69.66
64599;SHT31;51008;51.504;11.548;2024-03-23T13:24:05;10.01;69.07
64599;SHT31;51008;51.504;11.548;2024-03-23T13:29:06;8.48;78.33
64599;SHT31;51008;51.504;11.548;2024-03-23T13:34:07;6.61;84.06
64599;SHT31;51008;51.504;11.548;2024-03-23T13:39:09;5.33;88.49
64599;SHT31;51008;51.504;11.548;2024-03-23T13:44:11;4.94;91.28
64599;SHT31;51008;51.504;11.548;2024-03-23T13:49:24;5.13;92.21
64599;SHT31;51008;51.504;11.548;2024-03-23T13:54:26;5.54;91.55
64599;SHT31;51008;51.504;11.548;2024-03-23T13:59:27;5.67;92.48
64599;SHT31;51008;51.504;11.548;2024-03-23T14:04:29;5.87;92.10
64599;SHT31;51008;51.504;11.548;2024-03-23T14:09:30;5.77;90.81
64599;SHT31;51008;51.504;11.548;2024-03-23T14:14:31;5.68;90.68
64599;SHT31;51008;51.504;11.548;2024-03-23T14:19:32;5.91;90.47
64599;SHT31;51008;51.504;11.548;2024-03-23T14:24:33;6.19;90.04
64599;SHT31;51008;51.504;11.548;2024-03-23T14:29:34;6.93;92.13
64599;SHT31;51008;51.504;11.548;2024-03-23T14:34:35;7.38;90.85
64599;SHT31;51008;51.504;11.548;2024-03-23T14:39:36;7.23;87.46
64599;SHT31;51008;51.504;11.548;2024-03-23T14:44:37;6.95;87.86
64599;SHT31;51008;51.504;11.548;2024-03-23T14:49:38;6.93;87.78
64599;SHT31;51008;51.504;11.548;2024-03-23T14:54:39;7.35;87.61
64599;SHT31;51008;51.504;11.548;2024-03-23T14:59:41;7.78;88.29
64599;SHT31;51008;51.504;11.548;2024-03-23T15:04:42;7.92;86.67
64599;SHT31;51008;51.504;11.548;2024-03-23T15:09:43;7.71;84.68
64599;SHT31;51008;51.504;11.548;2024-03-23T15:14:44;7.58;85.80
64599;SHT31;51008;51.504;11.548;2024-03-23T15:19:45;7.51;85.72
64599;SHT31;51008;51.504;11.548;2024-03-23T15:24:48;7.43;86.03
64599;SHT31;51008;51.504;11.548;2024-03-23T15:29:50;7.26;85.58
64599;SHT31;51008;51.504;11.548;2024-03-23T15:34:51;7.05;85.70
64599;SHT31;51008;51.504;11.548;2024-03-23T15:39:52;6.82;85.43
64599;SHT31;51008;51.504;11.548;2024-03-23T15:44:53;6.61;85.19
64599;SHT31;51008;51.504;11.548;2024-03-23T15:49:54;6.47;83.95
64599;SHT31;51008;51.504;11.548;2024-03-23T15:54:55;6.38;83.17
64599;SHT31;51008;51.504;11.548;2024-03-23T15:59:56;6.32;82.85
64599;SHT31;51008;51.504;11.548;2024-03-23T16:04:57;6.34;84.50
64599;SHT31;51008;51.504;11.548;2024-03-23T16:09:58;6.16;85.74
64599;SHT31;51008;51.504;11.548;2024-03-23T16:14:59;5.70;88.94
64599;SHT31;51008;51.504;11.548;2024-03-23T16:20:01;5.36;91.13
64599;SHT31;51008;51.504;11.548;2024-03-23T16:25:02;5.15;92.58
64599;SHT31;51008;51.504;11.548;2024-03-23T16:30:04;5.16;92.66
64599;SHT31;51008;51.504;11.548;2024-03-23T16:35:05;5.29;92.95
64599;SHT31;51008;51.504;11.548;2024-03-23T16:40:25;5.26;93.11
64599;SHT31;51008;51.504;11.548;2024-03-23T16:45:26;5.05;91.84
64599;SHT31;51008;51.504;11.548;2024-03-23T16:50:27;4.84;92.80
64599;SHT31;51008;51.504;11.548;2024-03-23T16:55:28;4.60;92.48
64599;SHT31;51008;51.504;11.548;2024-03-23T17:00:29;4.50;92.69
64599;SHT31;51008;51.504;11.548;2024-03-23T17:05:39;4.43;92.50
64599;SHT31;51008;51.504;11.548;2024-03-23T17:10:40;4.23;92.79
64599;SHT31;51008;51.504;11.548;2024-03-23T17:15:45;4.16;93.09
64599;SHT31;51008;51.504;11.548;2024-03-23T17:20:46;3.99;93.22
64599;SHT31;51008;51.504;11.548;2024-03-23T17:25:48;3.98;93.55
64599;SHT31;51008;51.504;11.548;2024-03-23T17:30:49;3.88;94.08
64599;SHT31;51008;51.504;11.548;2024-03-23T17:35:50;3.76;93.85
64599;SHT31;51008;51.504;11.548;2024-03-23T17:40:56;3.64;94.25
64599;SHT31;51008;51.504;11.548;2024-03-23T17:46:00;3.64;94.33
64599;SHT31;51008;51.504;11.548;2024-03-23T17:51:04;3.64;94.67
64599;SHT31;51008;51.504;11.548;2024-03-23T17:56:07;3.69;94.43
64599;SHT31;51008;51.504;11.548;2024-03-23T18:01:08;3.74;94.67
64599;SHT31;51008;51.504;11.548;2024-03-23T18:06:09;3.77;94.06
64599;SHT31;51008;51.504;11.548;2024-03-23T18:11:10;3.85;94.29
64599;SHT31;51008;51.504;11.548;2024-03-23T18:16:11;3.93;94.51
64599;SHT31;51008;51.504;11.548;2024-03-23T18:21:12;4.06;95.26
64599;SHT31;51008;51.504;11.548;2024-03-23T18:26:19;4.02;95.59
64599;SHT31;51008;51.504;11.548;2024-03-23T18:31:20;3.95;96.33
64599;SHT31;51008;51.504;11.548;2024-03-23T18:36:40;3.97;96.51
64599;SHT31;51008;51.504;11.548;2024-03-23T18:41:42;3.93;96.55
64599;SHT31;51008;51.504;11.548;2024-03-23T18:46:43;3.90;96.95
64599;SHT31;51008;51.504;11.548;2024-03-23T18:51:46;3.81;97.20
64599;SHT31;51008;51.504;11.548;2024-03-23T18:56:47;3.56;97.18
64599;SHT31;51008;51.504;11.548;2024-03-23T19:01:48;3.29;97.39
64599;SHT31;51008;51.504;11.548;2024-03-23T19:07:08;3.31;97.33
64599;SHT31;51008;51.504;11.548;2024-03-23T19:12:09;3.28;97.45
64599;SHT31;51008;51.504;11.548;2024-03-23T19:17:10;3.35;97.47
64599;SHT31;51008;51.504;11.548;2024-03-23T19:22:11;3.38;97.05
64599;SHT31;51008;51.504;11.548;2024-03-23T19:27:12;3.32;97.32
64599;SHT31;51008;51.504;11.548;2024-03-23T19:32:13;3.31;96.93
64599;SHT31;51008;51.504;11.548;2024-03-23T19:37:15;3.21;97.23
64599;SHT31;51008;51.504;11.548;2024-03-23T19:42:17;3.09;97.25
64599;SHT31;51008;51.504;11.548;2024-03-23T19:47:18;2.98;97.09
64599;SHT31;51008;51.504;11.548;2024-03-23T19:52:27;2.81;97.30
64599;SHT31;51008;51.504;11.548;2024-03-23T19:57:28;2.64;98.07
64599;SHT31;51008;51.504;11.548;2024-03-23T20:02:36;2.57;98.12
64599;SHT31;51008;51.504;11.548;2024-03-23T20:07:37;2.46;98.48
64599;SHT31;51008;51.504;11.548;2024-03-23T20:12:39;2.39;98.04
64599;SHT31;51008;51.504;11.548;2024-03-23T20:17:40;2.36;98.45
64599;SHT31;51008;51.504;11.548;2024-03-23T20:22:41;2.39;98.57
64599;SHT31;51008;51.504;11.548;2024-03-23T20:27:42;2.34;98.91
64599;SHT31;51008;51.504;11.548;2024-03-23T20:32:43;2.41;98.89
64599;SHT31;51008;51.504;11.548;2024-03-23T20:37:45;2.52;98.66
64599;SHT31;51008;51.504;11.548;2024-03-23T20:42:46;2.53;98.74
64599;SHT31;51008;51.504;11.548;2024-03-23T20:47:47;2.54;99.06
64599;SHT31;51008;51.504;11.548;2024-03-23T20:52:48;2.57;99.25
64599;SHT31;51008;51.504;11.548;2024-03-23T20:57:49;2.69;98.70
64599;SHT31;51008;51.504;11.548;2024-03-23T21:02:51;2.79;98.13
64599;SHT31;51008;51.504;11.548;2024-03-23T21:07:52;2.81;97.66
64599;SHT31;51008;51.504;11.548;2024-03-23T21:12:53;2.86;97.26
64599;SHT31;51008;51.504;11.548;2024-03-23T21:17:54;2.91;96.77
64599;SHT31;51008;51.504;11.548;2024-03-23T21:22:55;2.91;96.74
64599;SHT31;51008;51.504;11.548;2024-03-23T21:27:57;2.91;96.47
64599;SHT31;51008;51.504;11.548;2024-03-23T21:32:58;2.83;96.73
64599;SHT31;51008;51.504;11.548;2024-03-23T21:37:59;2.77;96.52
64599;SHT31;51008;51.504;11.548;2024-03-23T21:43:00;2.79;96.25
64599;SHT31;51008;51.504;11.548;2024-03-23T21:48:01;2.67;96.62
64599;SHT31;51008;51.504;11.548;2024-03-23T21:53:03;2.60;96.67
64599;SHT31;51008;51.504;11.548;2024-03-23T21:58:04;2.53;96.89
64599;SHT31;51008;51.504;11.548;2024-03-23T22:03:05;2.49;96.97
64599;SHT31;51008;51.504;11.548;2024-03-23T22:08:07;2.41;97.08
64599;SHT31;51008;51.504;11.548;2024-03-23T22:13:09;2.41;97.12
64599;SHT31;51008;51.504;11.548;2024-03-23T22:18:10;2.34;97.16
64599;SHT31;51008;51.504;11.548;2024-03-23T22:23:11;2.29;97.21
64599;SHT31;51008;51.504;11.548;2024-03-23T22:28:12;2.22;97.30
64599;SHT31;51008;51.504;11.548;2024-03-23T22:33:13;2.20;97.52
64599;SHT31;51008;51.504;11.548;2024-03-23T22:38:15;2.13;97.79
64599;SHT31;51008;51.504;11.548;2024-03-23T22:43:16;2.08;97.84
64599;SHT31;51008;51.504;11.548;2024-03-23T22:48:18;2.06;97.79
64599;SHT31;51008;51.504;11.548;2024-03-23T22:53:19;2.01;97.77
64599;SHT31;51008;51.504;11.548;2024-03-23T22:58:40;1.96;97.79
64599;SHT31;51008;51.504;11.548;2024-03-23T23:03:41;1.93;97.77
64599;SHT31;51008;51.504;11.548;2024-03-23T23:08:42;1.91;97.53
64599;SHT31;51008;51.504;11.548;2024-03-23T23:14:03;1.87;97.50
64599;SHT31;51008;51.504;11.548;2024-03-23T23:19:04;1.89;97.40
64599;SHT31;51008;51.504;11.548;2024-03-23T23:24:06;1.90;97.23
64599;SHT31;51008;51.504;11.548;2024-03-23T23:29:07;1.90;97.20
64599;SHT31;51008;51.504;11.548;2024-03-23T23:34:09;1.83;97.23
64599;SHT31;51008;51.504;11.548;2024-03-23T23:39:21;1.72;97.81
64599;SHT31;51008;51.504;11.548;2024-03-23T23:44:22;1.67;98.03
64599;SHT31;51008;51.504;11.548;2024-03-23T23:49:23;1.72;97.81
64599;SHT31;51008;51.504;11.548;2024-03-23T23:54:24;1.74;97.58
64599;SHT31;51008;51.504;11.548;2024-03-23T23:59:25;1.62;97.64
